sensor_id;sensor_type;location;lat;lon;timestamp;P1;durP1;ratioP1;P2;durP2;ratioP2
4521;SDS011;2273;48.464;11.926;2023-08-24T00:00:39;8.40;;;7.00;;
4521;SDS011;2273;48.464;11.926;2023-08-24T00:03:05;10.93;;;6.87;;
4521;SDS011;2273;48.464;11.926;2023-08-24T00:05:35;9.10;;;7.33;;
4521;SDS011;2273;48.464;11.926;2023-08-24T00:08:05;8.70;;;7.70;;
4521;SDS011;2273;48.464;11.926;2023-08-24T00:10:31;9.17;;;7.60;;
4521;SDS011;2273;48.464;11.926;2023-08-24T00:12:57;10.93;;;6.80;;
4521;SDS011;2273;48.464;11.926;2023-08-24T00:15:23;11.67;;;6.30;;
4521;SDS011;2273;48.464;11.926;2023-08-24T00:17:49;10.20;;;7.20;;
4521;SDS011;2273;48.464;11.926;2023-08-24T00:20:14;8.40;;;6.90;;
4521;SDS011;2273;48.464;11.926;2023-08-24T00:22:40;10.97;;;6.87;;
4521;SDS011;2273;48.464;11.926;2023-08-24T00:25:06;17.53;;;8.00;;
4521;SDS011;2273;48.464;11.926;2023-08-24T00:27:32;8.57;;;6.83;;
4521;SDS011;2273;48.464;11.926;2023-08-24T00:29:58;10.17;;;8.10;;
4521;SDS011;2273;48.464;11.926;2023-08-24T00:32:23;10.60;;;6.90;;
4521;SDS011;2273;48.464;11.926;2023-08-24T00:34:49;10.00;;;6.93;;
4521;SDS011;2273;48.464;11.926;2023-08-24T00:37:14;13.47;;;7.50;;
4521;SDS011;2273;48.464;11.926;2023-08-24T00:39:40;8.10;;;6.77;;
4521;SDS011;2273;48.464;11.926;2023-08-24T00:42:05;7.83;;;6.70;;
4521;SDS011;2273;48.464;11.926;2023-08-24T00:44:31;10.00;;;7.17;;
4521;SDS011;2273;48.464;11.926;2023-08-24T00:46:57;9.93;;;8.00;;
4521;SDS011;2273;48.464;11.926;2023-08-24T00:49:23;8.20;;;7.27;;
4521;SDS011;2273;48.464;11.926;2023-08-24T00:51:49;12.63;;;7.50;;
4521;SDS011;2273;48.464;11.926;2023-08-24T00:54:15;20.37;;;8.03;;
4521;SDS011;2273;48.464;11.926;2023-08-24T00:56:40;10.23;;;7.30;;
4521;SDS011;2273;48.464;11.926;2023-08-24T00:59:06;8.83;;;7.77;;
4521;SDS011;2273;48.464;11.926;2023-08-24T01:01:32;10.17;;;7.43;;
4521;SDS011;2273;48.464;11.926;2023-08-24T01:03:58;9.53;;;8.10;;
4521;SDS011;2273;48.464;11.926;2023-08-24T01:06:24;9.77;;;7.60;;
4521;SDS011;2273;48.464;11.926;2023-08-24T01:08:49;9.17;;;7.93;;
4521;SDS011;2273;48.464;11.926;2023-08-24T01:11:18;13.13;;;8.40;;
4521;SDS011;2273;48.464;11.926;2023-08-24T01:16:32;10.57;;;8.23;;
4521;SDS011;2273;48.464;11.926;2023-08-24T01:18:59;11.83;;;8.07;;
4521;SDS011;2273;48.464;11.926;2023-08-24T01:21:25;11.63;;;7.63;;
4521;SDS011;2273;48.464;11.926;2023-08-24T01:24:05;15.30;;;8.80;;
4521;SDS011;2273;48.464;11.926;2023-08-24T01:26:36;9.90;;;8.70;;
4521;SDS011;2273;48.464;11.926;2023-08-24T01:29:01;11.80;;;8.40;;
4521;SDS011;2273;48.464;11.926;2023-08-24T01:31:29;13.60;;;7.10;;
4521;SDS011;2273;48.464;11.926;2023-08-24T01:33:55;10.80;;;8.13;;
4521;SDS011;2273;48.464;11.926;2023-08-24T01:36:20;9.43;;;7.97;;
4521;SDS011;2273;48.464;11.926;2023-08-24T01:38:53;10.40;;;8.03;;
4521;SDS011;2273;48.464;11.926;2023-08-24T01:41:25;10.70;;;7.40;;
4521;SDS011;2273;48.464;11.926;2023-08-24T01:43:52;10.90;;;7.87;;
4521;SDS011;2273;48.464;11.926;2023-08-24T01:46:19;11.97;;;8.10;;
4521;SDS011;2273;48.464;11.926;2023-08-24T01:48:46;17.57;;;7.50;;
4521;SDS011;2273;48.464;11.926;2023-08-24T01:51:12;11.03;;;8.13;;
4521;SDS011;2273;48.464;11.926;2023-08-24T01:53:38;12.40;;;8.00;;
4521;SDS011;2273;48.464;11.926;2023-08-24T01:56:07;8.77;;;7.00;;
4521;SDS011;2273;48.464;11.926;2023-08-24T01:58:34;14.33;;;7.60;;
4521;SDS011;2273;48.464;11.926;2023-08-24T02:00:59;16.43;;;7.40;;
4521;SDS011;2273;48.464;11.926;2023-08-24T02:03:25;10.37;;;7.63;;
4521;SDS011;2273;48.464;11.926;2023-08-24T02:05:50;12.50;;;7.87;;
4521;SDS011;2273;48.464;11.926;2023-08-24T02:08:16;9.73;;;7.37;;
4521;SDS011;2273;48.464;11.926;2023-08-24T02:10:41;15.20;;;7.63;;
4521;SDS011;2273;48.464;11.926;2023-08-24T02:13:07;10.97;;;8.00;;
4521;SDS011;2273;48.464;11.926;2023-08-24T02:15:33;12.00;;;8.10;;
4521;SDS011;2273;48.464;11.926;2023-08-24T02:17:58;11.63;;;7.70;;
4521;SDS011;2273;48.464;11.926;2023-08-24T02:20:24;10.43;;;7.30;;
4521;SDS011;2273;48.464;11.926;2023-08-24T02:22:50;14.37;;;8.40;;
4521;SDS011;2273;48.464;11.926;2023-08-24T02:25:16;8.30;;;7.30;;
4521;SDS011;2273;48.464;11.926;2023-08-24T02:27:41;11.77;;;7.50;;
4521;SDS011;2273;48.464;11.926;2023-08-24T02:30:06;9.40;;;7.57;;
4521;SDS011;2273;48.464;11.926;2023-08-24T02:32:32;15.37;;;8.60;;
4521;SDS011;2273;48.464;11.926;2023-08-24T02:34:57;9.63;;;8.03;;
4521;SDS011;2273;48.464;11.926;2023-08-24T02:37:23;11.30;;;7.57;;
4521;SDS011;2273;48.464;11.926;2023-08-24T02:39:48;8.00;;;7.00;;
4521;SDS011;2273;48.464;11.926;2023-08-24T02:42:15;9.90;;;8.20;;
4521;SDS011;2273;48.464;11.926;2023-08-24T02:44:40;12.03;;;7.97;;
4521;SDS011;2273;48.464;11.926;2023-08-24T02:47:06;13.03;;;7.33;;
4521;SDS011;2273;48.464;11.926;2023-08-24T02:49:31;8.73;;;7.73;;
4521;SDS011;2273;48.464;11.926;2023-08-24T02:51:56;13.67;;;8.73;;
4521;SDS011;2273;48.464;11.926;2023-08-24T02:54:22;9.70;;;8.53;;
4521;SDS011;2273;48.464;11.926;2023-08-24T02:56:48;14.30;;;8.87;;
4521;SDS011;2273;48.464;11.926;2023-08-24T02:59:13;9.80;;;8.03;;
4521;SDS011;2273;48.464;11.926;2023-08-24T03:01:39;17.60;;;8.73;;
4521;SDS011;2273;48.464;11.926;2023-08-24T03:04:06;14.47;;;8.43;;
4521;SDS011;2273;48.464;11.926;2023-08-24T03:06:31;18.50;;;9.47;;
4521;SDS011;2273;48.464;11.926;2023-08-24T03:08:57;18.03;;;8.63;;
4521;SDS011;2273;48.464;11.926;2023-08-24T03:11:22;11.37;;;8.70;;
4521;SDS011;2273;48.464;11.926;2023-08-24T03:13:48;9.60;;;8.13;;
4521;SDS011;2273;48.464;11.926;2023-08-24T03:16:14;13.97;;;8.00;;
4521;SDS011;2273;48.464;11.926;2023-08-24T03:18:39;9.20;;;8.17;;
4521;SDS011;2273;48.464;11.926;2023-08-24T03:21:05;11.73;;;8.70;;
4521;SDS011;2273;48.464;11.926;2023-08-24T03:23:33;9.47;;;7.90;;
4521;SDS011;2273;48.464;11.926;2023-08-24T03:25:58;11.60;;;8.63;;
4521;SDS011;2273;48.464;11.926;2023-08-24T03:28:24;10.23;;;8.30;;
4521;SDS011;2273;48.464;11.926;2023-08-24T03:30:52;13.00;;;8.30;;
4521;SDS011;2273;48.464;11.926;2023-08-24T03:33:21;12.40;;;8.50;;
4521;SDS011;2273;48.464;11.926;2023-08-24T03:35:46;10.30;;;7.67;;
4521;SDS011;2273;48.464;11.926;2023-08-24T03:38:13;10.73;;;8.40;;
4521;SDS011;2273;48.464;11.926;2023-08-24T03:40:38;9.83;;;8.47;;
4521;SDS011;2273;48.464;11.926;2023-08-24T03:43:04;10.67;;;8.77;;
4521;SDS011;2273;48.464;11.926;2023-08-24T03:45:29;11.43;;;9.07;;
4521;SDS011;2273;48.464;11.926;2023-08-24T03:47:55;12.93;;;9.03;;
4521;SDS011;2273;48.464;11.926;2023-08-24T03:50:20;13.60;;;9.27;;
4521;SDS011;2273;48.464;11.926;2023-08-24T03:52:47;20.43;;;8.90;;
4521;SDS011;2273;48.464;11.926;2023-08-24T03:55:15;12.17;;;8.67;;
4521;SDS011;2273;48.464;11.926;2023-08-24T03:57:42;12.23;;;8.67;;
4521;SDS011;2273;48.464;11.926;2023-08-24T04:00:08;10.60;;;8.00;;
4521;SDS011;2273;48.464;11.926;2023-08-24T04:02:42;11.67;;;8.33;;
4521;SDS011;2273;48.464;11.926;2023-08-24T04:05:11;11.10;;;9.00;;
4521;SDS011;2273;48.464;11.926;2023-08-24T04:07:37;13.07;;;9.07;;
4521;SDS011;2273;48.464;11.926;2023-08-24T04:10:03;10.67;;;8.80;;
4521;SDS011;2273;48.464;11.926;2023-08-24T04:12:32;13.23;;;9.70;;
4521;SDS011;2273;48.464;11.926;2023-08-24T04:14:57;12.30;;;9.50;;
4521;SDS011;2273;48.464;11.926;2023-08-24T04:17:23;10.93;;;8.83;;
4521;SDS011;2273;48.464;11.926;2023-08-24T04:19:49;9.63;;;8.20;;
4521;SDS011;2273;48.464;11.926;2023-08-24T04:22:15;13.80;;;9.40;;
4521;SDS011;2273;48.464;11.926;2023-08-24T04:24:40;12.60;;;8.83;;
4521;SDS011;2273;48.464;11.926;2023-08-24T04:27:06;10.57;;;8.57;;
4521;SDS011;2273;48.464;11.926;2023-08-24T04:29:31;15.63;;;8.80;;
4521;SDS011;2273;48.464;11.926;2023-08-24T04:31:57;12.53;;;9.30;;
4521;SDS011;2273;48.464;11.926;2023-08-24T04:34:22;10.30;;;8.23;;
4521;SDS011;2273;48.464;11.926;2023-08-24T04:36:48;14.00;;;8.90;;
4521;SDS011;2273;48.464;11.926;2023-08-24T04:39:13;16.70;;;9.13;;
4521;SDS011;2273;48.464;11.926;2023-08-24T04:41:38;13.73;;;9.57;;
4521;SDS011;2273;48.464;11.926;2023-08-24T04:44:04;10.10;;;8.30;;
4521;SDS011;2273;48.464;11.926;2023-08-24T04:46:29;11.40;;;9.57;;
4521;SDS011;2273;48.464;11.926;2023-08-24T04:48:54;10.60;;;8.80;;
4521;SDS011;2273;48.464;11.926;2023-08-24T04:51:20;10.93;;;8.87;;
4521;SDS011;2273;48.464;11.926;2023-08-24T04:53:45;14.13;;;9.10;;
4521;SDS011;2273;48.464;11.926;2023-08-24T04:56:11;10.90;;;9.20;;
4521;SDS011;2273;48.464;11.926;2023-08-24T04:58:36;10.50;;;8.57;;
4521;SDS011;2273;48.464;11.926;2023-08-24T05:01:01;11.30;;;9.00;;
4521;SDS011;2273;48.464;11.926;2023-08-24T05:03:27;9.87;;;7.80;;
4521;SDS011;2273;48.464;11.926;2023-08-24T05:05:52;12.47;;;8.80;;
4521;SDS011;2273;48.464;11.926;2023-08-24T05:08:18;12.40;;;8.70;;
4521;SDS011;2273;48.464;11.926;2023-08-24T05:10:43;9.50;;;8.13;;
4521;SDS011;2273;48.464;11.926;2023-08-24T05:13:09;13.90;;;9.00;;
4521;SDS011;2273;48.464;11.926;2023-08-24T05:15:34;12.17;;;9.40;;
4521;SDS011;2273;48.464;11.926;2023-08-24T05:17:59;16.23;;;10.10;;
4521;SDS011;2273;48.464;11.926;2023-08-24T05:20:28;10.80;;;9.03;;
4521;SDS011;2273;48.464;11.926;2023-08-24T05:22:54;13.80;;;8.83;;
4521;SDS011;2273;48.464;11.926;2023-08-24T05:25:20;14.10;;;9.23;;
4521;SDS011;2273;48.464;11.926;2023-08-24T05:27:46;13.83;;;10.03;;
4521;SDS011;2273;48.464;11.926;2023-08-24T05:30:12;13.87;;;10.53;;
4521;SDS011;2273;48.464;11.926;2023-08-24T05:32:41;15.43;;;10.37;;
4521;SDS011;2273;48.464;11.926;2023-08-24T05:35:06;12.27;;;9.60;;
4521;SDS011;2273;48.464;11.926;2023-08-24T05:37:33;15.63;;;9.87;;
4521;SDS011;2273;48.464;11.926;2023-08-24T05:40:02;16.40;;;10.20;;
4521;SDS011;2273;48.464;11.926;2023-08-24T05:42:27;14.93;;;11.57;;
4521;SDS011;2273;48.464;11.926;2023-08-24T05:44:53;12.90;;;10.77;;
4521;SDS011;2273;48.464;11.926;2023-08-24T05:47:18;14.33;;;10.37;;
4521;SDS011;2273;48.464;11.926;2023-08-24T05:49:44;14.70;;;10.20;;
4521;SDS011;2273;48.464;11.926;2023-08-24T05:52:09;16.70;;;10.60;;
4521;SDS011;2273;48.464;11.926;2023-08-24T05:54:38;13.77;;;10.93;;
4521;SDS011;2273;48.464;11.926;2023-08-24T05:57:04;14.33;;;11.33;;
4521;SDS011;2273;48.464;11.926;2023-08-24T05:59:30;17.60;;;9.60;;
4521;SDS011;2273;48.464;11.926;2023-08-24T06:01:56;16.37;;;10.50;;
4521;SDS011;2273;48.464;11.926;2023-08-24T06:04:21;12.63;;;10.37;;
4521;SDS011;2273;48.464;11.926;2023-08-24T06:06:47;11.53;;;9.97;;
4521;SDS011;2273;48.464;11.926;2023-08-24T06:09:12;14.63;;;11.97;;
4521;SDS011;2273;48.464;11.926;2023-08-24T06:11:37;18.77;;;11.97;;
4521;SDS011;2273;48.464;11.926;2023-08-24T06:14:03;13.53;;;10.50;;
4521;SDS011;2273;48.464;11.926;2023-08-24T06:16:29;14.87;;;11.13;;
4521;SDS011;2273;48.464;11.926;2023-08-24T06:18:54;11.80;;;10.50;;
4521;SDS011;2273;48.464;11.926;2023-08-24T06:21:20;17.93;;;11.13;;
4521;SDS011;2273;48.464;11.926;2023-08-24T06:23:45;22.90;;;12.77;;
4521;SDS011;2273;48.464;11.926;2023-08-24T06:26:12;20.33;;;11.10;;
4521;SDS011;2273;48.464;11.926;2023-08-24T06:28:38;14.93;;;11.10;;
4521;SDS011;2273;48.464;11.926;2023-08-24T06:31:03;17.63;;;11.83;;
4521;SDS011;2273;48.464;11.926;2023-08-24T06:33:38;19.67;;;10.10;;
4521;SDS011;2273;48.464;11.926;2023-08-24T06:36:04;16.43;;;11.10;;
4521;SDS011;2273;48.464;11.926;2023-08-24T06:38:33;14.10;;;10.63;;
4521;SDS011;2273;48.464;11.926;2023-08-24T06:40:58;15.60;;;10.50;;
4521;SDS011;2273;48.464;11.926;2023-08-24T06:43:27;13.03;;;9.43;;
4521;SDS011;2273;48.464;11.926;2023-08-24T06:45:56;9.80;;;7.87;;
4521;SDS011;2273;48.464;11.926;2023-08-24T06:48:22;10.70;;;8.20;;
4521;SDS011;2273;48.464;11.926;2023-08-24T06:50:48;10.00;;;7.70;;
4521;SDS011;2273;48.464;11.926;2023-08-24T06:53:13;14.10;;;7.30;;
4521;SDS011;2273;48.464;11.926;2023-08-24T06:55:40;12.03;;;8.27;;
4521;SDS011;2273;48.464;11.926;2023-08-24T06:58:05;11.40;;;7.37;;
4521;SDS011;2273;48.464;11.926;2023-08-24T07:00:31;12.63;;;7.00;;
4521;SDS011;2273;48.464;11.926;2023-08-24T07:02:57;9.93;;;6.97;;
4521;SDS011;2273;48.464;11.926;2023-08-24T07:05:22;11.60;;;6.83;;
4521;SDS011;2273;48.464;11.926;2023-08-24T07:07:51;13.60;;;6.87;;
4521;SDS011;2273;48.464;11.926;2023-08-24T07:10:17;14.13;;;7.63;;
4521;SDS011;2273;48.464;11.926;2023-08-24T07:12:42;11.00;;;7.47;;
4521;SDS011;2273;48.464;11.926;2023-08-24T07:15:10;11.63;;;6.97;;
4521;SDS011;2273;48.464;11.926;2023-08-24T07:17:36;9.43;;;6.53;;
4521;SDS011;2273;48.464;11.926;2023-08-24T07:20:02;15.17;;;7.00;;
4521;SDS011;2273;48.464;11.926;2023-08-24T07:22:30;8.90;;;6.53;;
4521;SDS011;2273;48.464;11.926;2023-08-24T07:24:55;17.67;;;6.67;;
4521;SDS011;2273;48.464;11.926;2023-08-24T07:27:21;16.00;;;6.60;;
4521;SDS011;2273;48.464;11.926;2023-08-24T07:29:47;12.50;;;6.00;;
4521;SDS011;2273;48.464;11.926;2023-08-24T07:32:12;12.80;;;6.77;;
4521;SDS011;2273;48.464;11.926;2023-08-24T07:34:38;13.27;;;6.10;;
4521;SDS011;2273;48.464;11.926;2023-08-24T07:37:03;9.80;;;6.30;;
4521;SDS011;2273;48.464;11.926;2023-08-24T07:39:28;9.60;;;5.87;;
4521;SDS011;2273;48.464;11.926;2023-08-24T07:41:54;23.97;;;6.73;;
4521;SDS011;2273;48.464;11.926;2023-08-24T07:44:19;13.50;;;6.03;;
4521;SDS011;2273;48.464;11.926;2023-08-24T07:46:46;8.90;;;6.67;;
4521;SDS011;2273;48.464;11.926;2023-08-24T07:49:12;12.10;;;6.20;;
4521;SDS011;2273;48.464;11.926;2023-08-24T07:51:38;18.80;;;5.83;;
4521;SDS011;2273;48.464;11.926;2023-08-24T07:54:03;11.57;;;5.73;;
4521;SDS011;2273;48.464;11.926;2023-08-24T07:56:31;8.63;;;6.23;;
4521;SDS011;2273;48.464;11.926;2023-08-24T07:58:56;13.60;;;6.33;;
4521;SDS011;2273;48.464;11.926;2023-08-24T08:01:22;10.00;;;6.67;;
4521;SDS011;2273;48.464;11.926;2023-08-24T08:03:47;15.00;;;6.20;;
4521;SDS011;2273;48.464;11.926;2023-08-24T08:06:13;10.80;;;6.00;;
4521;SDS011;2273;48.464;11.926;2023-08-24T08:08:38;9.53;;;6.10;;
4521;SDS011;2273;48.464;11.926;2023-08-24T08:11:04;10.77;;;6.30;;
4521;SDS011;2273;48.464;11.926;2023-08-24T08:13:29;8.77;;;5.80;;
4521;SDS011;2273;48.464;11.926;2023-08-24T08:16:05;7.97;;;6.20;;
4521;SDS011;2273;48.464;11.926;2023-08-24T08:18:32;10.47;;;5.73;;
4521;SDS011;2273;48.464;11.926;2023-08-24T08:20:58;8.40;;;5.50;;
4521;SDS011;2273;48.464;11.926;2023-08-24T08:23:23;13.90;;;5.20;;
4521;SDS011;2273;48.464;11.926;2023-08-24T08:25:49;8.13;;;5.30;;
4521;SDS011;2273;48.464;11.926;2023-08-24T08:28:15;8.70;;;5.00;;
4521;SDS011;2273;48.464;11.926;2023-08-24T08:30:41;11.50;;;5.03;;
4521;SDS011;2273;48.464;11.926;2023-08-24T08:33:06;7.33;;;4.60;;
4521;SDS011;2273;48.464;11.926;2023-08-24T08:35:32;14.00;;;5.30;;
4521;SDS011;2273;48.464;11.926;2023-08-24T08:37:57;6.43;;;4.57;;
4521;SDS011;2273;48.464;11.926;2023-08-24T08:40:24;6.00;;;4.70;;
4521;SDS011;2273;48.464;11.926;2023-08-24T08:42:55;6.97;;;5.40;;
4521;SDS011;2273;48.464;11.926;2023-08-24T08:45:24;7.93;;;5.10;;
4521;SDS011;2273;48.464;11.926;2023-08-24T08:47:51;6.80;;;4.60;;
4521;SDS011;2273;48.464;11.926;2023-08-24T08:50:16;15.83;;;4.93;;
4521;SDS011;2273;48.464;11.926;2023-08-24T08:52:42;6.77;;;5.10;;
4521;SDS011;2273;48.464;11.926;2023-08-24T08:55:07;8.70;;;5.33;;
4521;SDS011;2273;48.464;11.926;2023-08-24T08:57:35;5.10;;;4.60;;
4521;SDS011;2273;48.464;11.926;2023-08-24T09:00:01;11.80;;;4.40;;
4521;SDS011;2273;48.464;11.926;2023-08-24T09:02:27;5.73;;;4.30;;
4521;SDS011;2273;48.464;11.926;2023-08-24T09:04:54;8.13;;;5.10;;
4521;SDS011;2273;48.464;11.926;2023-08-24T09:07:19;5.97;;;4.30;;
4521;SDS011;2273;48.464;11.926;2023-08-24T09:09:45;10.37;;;5.10;;
4521;SDS011;2273;48.464;11.926;2023-08-24T09:12:11;8.77;;;5.07;;
4521;SDS011;2273;48.464;11.926;2023-08-24T09:14:36;6.30;;;4.57;;
4521;SDS011;2273;48.464;11.926;2023-08-24T09:17:02;4.73;;;4.23;;
4521;SDS011;2273;48.464;11.926;2023-08-24T09:19:32;12.50;;;5.10;;
4521;SDS011;2273;48.464;11.926;2023-08-24T09:22:01;7.93;;;4.67;;
4521;SDS011;2273;48.464;11.926;2023-08-24T09:24:30;5.63;;;4.87;;
4521;SDS011;2273;48.464;11.926;2023-08-24T09:27:00;9.43;;;4.90;;
4521;SDS011;2273;48.464;11.926;2023-08-24T09:29:25;4.80;;;4.30;;
4521;SDS011;2273;48.464;11.926;2023-08-24T09:31:51;8.00;;;4.83;;
4521;SDS011;2273;48.464;11.926;2023-08-24T09:34:19;6.70;;;5.50;;
4521;SDS011;2273;48.464;11.926;2023-08-24T09:36:46;5.37;;;4.87;;
4521;SDS011;2273;48.464;11.926;2023-08-24T09:39:11;5.60;;;4.57;;
4521;SDS011;2273;48.464;11.926;2023-08-24T09:41:45;5.40;;;4.90;;
4521;SDS011;2273;48.464;11.926;2023-08-24T09:44:14;7.50;;;5.20;;
4521;SDS011;2273;48.464;11.926;2023-08-24T09:46:39;9.30;;;5.27;;
4521;SDS011;2273;48.464;11.926;2023-08-24T09:49:06;6.37;;;5.10;;
4521;SDS011;2273;48.464;11.926;2023-08-24T09:51:36;5.93;;;4.50;;
4521;SDS011;2273;48.464;11.926;2023-08-24T09:54:06;6.70;;;4.70;;
4521;SDS011;2273;48.464;11.926;2023-08-24T09:56:35;6.70;;;4.40;;
4521;SDS011;2273;48.464;11.926;2023-08-24T09:59:05;7.03;;;5.37;;
4521;SDS011;2273;48.464;11.926;2023-08-24T10:01:35;12.00;;;4.83;;
4521;SDS011;2273;48.464;11.926;2023-08-24T10:04:01;8.80;;;4.90;;
4521;SDS011;2273;48.464;11.926;2023-08-24T10:06:30;6.70;;;5.30;;
4521;SDS011;2273;48.464;11.926;2023-08-24T10:08:57;7.70;;;5.07;;
4521;SDS011;2273;48.464;11.926;2023-08-24T10:11:26;10.43;;;4.90;;
4521;SDS011;2273;48.464;11.926;2023-08-24T10:13:58;7.47;;;5.60;;
4521;SDS011;2273;48.464;11.926;2023-08-24T10:16:28;8.83;;;5.47;;
4521;SDS011;2273;48.464;11.926;2023-08-24T10:18:55;7.47;;;5.00;;
4521;SDS011;2273;48.464;11.926;2023-08-24T10:21:21;7.13;;;4.73;;
4521;SDS011;2273;48.464;11.926;2023-08-24T10:23:50;5.93;;;4.50;;
4521;SDS011;2273;48.464;11.926;2023-08-24T10:26:17;9.90;;;4.90;;
4521;SDS011;2273;48.464;11.926;2023-08-24T10:28:42;6.23;;;4.83;;
4521;SDS011;2273;48.464;11.926;2023-08-24T10:31:09;7.43;;;5.10;;
4521;SDS011;2273;48.464;11.926;2023-08-24T10:33:34;7.70;;;5.20;;
4521;SDS011;2273;48.464;11.926;2023-08-24T10:36:03;9.20;;;5.17;;
4521;SDS011;2273;48.464;11.926;2023-08-24T10:38:30;7.73;;;5.70;;
4521;SDS011;2273;48.464;11.926;2023-08-24T10:41:01;6.30;;;4.90;;
4521;SDS011;2273;48.464;11.926;2023-08-24T10:43:33;6.00;;;4.90;;
4521;SDS011;2273;48.464;11.926;2023-08-24T10:46:02;8.73;;;5.27;;
4521;SDS011;2273;48.464;11.926;2023-08-24T10:49:18;5.33;;;4.80;;
4521;SDS011;2273;48.464;11.926;2023-08-24T10:53:58;9.53;;;4.93;;
4521;SDS011;2273;48.464;11.926;2023-08-24T10:56:35;8.63;;;4.77;;
4521;SDS011;2273;48.464;11.926;2023-08-24T10:59:16;8.53;;;4.73;;
4521;SDS011;2273;48.464;11.926;2023-08-24T11:01:42;7.90;;;4.70;;
4521;SDS011;2273;48.464;11.926;2023-08-24T11:04:19;5.97;;;5.40;;
4521;SDS011;2273;48.464;11.926;2023-08-24T11:06:54;5.93;;;5.10;;
4521;SDS011;2273;48.464;11.926;2023-08-24T11:09:24;10.53;;;5.97;;
4521;SDS011;2273;48.464;11.926;2023-08-24T11:12:08;11.87;;;8.40;;
4521;SDS011;2273;48.464;11.926;2023-08-24T11:14:33;19.23;;;8.13;;
4521;SDS011;2273;48.464;11.926;2023-08-24T11:17:17;6.30;;;5.60;;
4521;SDS011;2273;48.464;11.926;2023-08-24T11:19:50;6.50;;;5.17;;
4521;SDS011;2273;48.464;11.926;2023-08-24T11:22:19;8.63;;;5.10;;
4521;SDS011;2273;48.464;11.926;2023-08-24T11:24:46;9.23;;;5.10;;
4521;SDS011;2273;48.464;11.926;2023-08-24T11:27:12;6.23;;;4.67;;
4521;SDS011;2273;48.464;11.926;2023-08-24T11:29:37;13.53;;;5.30;;
4521;SDS011;2273;48.464;11.926;2023-08-24T11:32:02;6.33;;;4.97;;
4521;SDS011;2273;48.464;11.926;2023-08-24T11:34:29;10.80;;;4.80;;
4521;SDS011;2273;48.464;11.926;2023-08-24T11:36:55;7.67;;;4.73;;
4521;SDS011;2273;48.464;11.926;2023-08-24T11:39:21;10.70;;;5.00;;
4521;SDS011;2273;48.464;11.926;2023-08-24T11:42:04;5.13;;;4.60;;
4521;SDS011;2273;48.464;11.926;2023-08-24T11:44:46;5.97;;;5.23;;
4521;SDS011;2273;48.464;11.926;2023-08-24T11:47:12;6.90;;;5.10;;
4521;SDS011;2273;48.464;11.926;2023-08-24T11:49:38;7.10;;;5.03;;
4521;SDS011;2273;48.464;11.926;2023-08-24T11:52:03;7.73;;;5.70;;
4521;SDS011;2273;48.464;11.926;2023-08-24T11:54:29;5.43;;;4.93;;
4521;SDS011;2273;48.464;11.926;2023-08-24T11:56:57;7.20;;;5.57;;
4521;SDS011;2273;48.464;11.926;2023-08-24T11:59:22;5.47;;;4.97;;
4521;SDS011;2273;48.464;11.926;2023-08-24T12:01:48;7.70;;;5.77;;
4521;SDS011;2273;48.464;11.926;2023-08-24T12:04:14;7.07;;;5.30;;
4521;SDS011;2273;48.464;11.926;2023-08-24T12:06:39;9.10;;;5.23;;
4521;SDS011;2273;48.464;11.926;2023-08-24T12:09:05;8.00;;;5.30;;
4521;SDS011;2273;48.464;11.926;2023-08-24T12:11:34;8.57;;;5.70;;
4521;SDS011;2273;48.464;11.926;2023-08-24T12:14:00;8.60;;;5.93;;
4521;SDS011;2273;48.464;11.926;2023-08-24T12:16:26;6.03;;;5.10;;
4521;SDS011;2273;48.464;11.926;2023-08-24T12:18:56;6.60;;;5.30;;
4521;SDS011;2273;48.464;11.926;2023-08-24T12:21:24;10.20;;;5.80;;
4521;SDS011;2273;48.464;11.926;2023-08-24T12:23:56;6.13;;;5.40;;
4521;SDS011;2273;48.464;11.926;2023-08-24T12:26:23;6.37;;;5.40;;
4521;SDS011;2273;48.464;11.926;2023-08-24T12:28:49;7.50;;;5.73;;
4521;SDS011;2273;48.464;11.926;2023-08-24T12:31:16;6.10;;;5.50;;
4521;SDS011;2273;48.464;11.926;2023-08-24T12:33:42;8.53;;;5.73;;
4521;SDS011;2273;48.464;11.926;2023-08-24T12:36:08;7.10;;;5.50;;
4521;SDS011;2273;48.464;11.926;2023-08-24T12:38:33;5.50;;;5.00;;
4521;SDS011;2273;48.464;11.926;2023-08-24T12:41:00;15.00;;;5.00;;
4521;SDS011;2273;48.464;11.926;2023-08-24T12:43:26;5.23;;;4.73;;
4521;SDS011;2273;48.464;11.926;2023-08-24T12:45:51;8.07;;;5.37;;
4521;SDS011;2273;48.464;11.926;2023-08-24T12:48:17;8.80;;;5.00;;
4521;SDS011;2273;48.464;11.926;2023-08-24T12:50:42;6.50;;;5.70;;
4521;SDS011;2273;48.464;11.926;2023-08-24T12:53:07;7.63;;;4.80;;
4521;SDS011;2273;48.464;11.926;2023-08-24T12:55:33;5.87;;;4.80;;
4521;SDS011;2273;48.464;11.926;2023-08-24T12:58:00;9.07;;;4.80;;
4521;SDS011;2273;48.464;11.926;2023-08-24T13:00:25;7.43;;;4.50;;
4521;SDS011;2273;48.464;11.926;2023-08-24T13:02:52;6.93;;;5.30;;
4521;SDS011;2273;48.464;11.926;2023-08-24T13:05:18;9.30;;;5.07;;
4521;SDS011;2273;48.464;11.926;2023-08-24T13:07:43;4.73;;;4.30;;
4521;SDS011;2273;48.464;11.926;2023-08-24T13:10:08;11.77;;;4.73;;
4521;SDS011;2273;48.464;11.926;2023-08-24T13:12:35;11.73;;;4.10;;
4521;SDS011;2273;48.464;11.926;2023-08-24T13:15:01;5.70;;;4.37;;
4521;SDS011;2273;48.464;11.926;2023-08-24T13:17:27;14.17;;;5.33;;
4521;SDS011;2273;48.464;11.926;2023-08-24T13:19:54;8.53;;;4.47;;
4521;SDS011;2273;48.464;11.926;2023-08-24T13:22:20;5.90;;;4.30;;
4521;SDS011;2273;48.464;11.926;2023-08-24T13:24:45;9.30;;;4.30;;
4521;SDS011;2273;48.464;11.926;2023-08-24T13:27:11;10.30;;;5.03;;
4521;SDS011;2273;48.464;11.926;2023-08-24T13:29:37;15.80;;;4.50;;
4521;SDS011;2273;48.464;11.926;2023-08-24T13:32:03;7.50;;;4.60;;
4521;SDS011;2273;48.464;11.926;2023-08-24T13:34:28;15.73;;;5.27;;
4521;SDS011;2273;48.464;11.926;2023-08-24T13:36:55;9.10;;;4.00;;
4521;SDS011;2273;48.464;11.926;2023-08-24T13:39:20;12.73;;;5.53;;
4521;SDS011;2273;48.464;11.926;2023-08-24T13:41:46;10.07;;;5.03;;
4521;SDS011;2273;48.464;11.926;2023-08-24T13:44:11;14.97;;;5.37;;
4521;SDS011;2273;48.464;11.926;2023-08-24T13:46:37;10.87;;;5.03;;
4521;SDS011;2273;48.464;11.926;2023-08-24T13:49:02;5.83;;;3.93;;
4521;SDS011;2273;48.464;11.926;2023-08-24T13:51:27;8.53;;;4.57;;
4521;SDS011;2273;48.464;11.926;2023-08-24T13:53:53;6.33;;;4.40;;
4521;SDS011;2273;48.464;11.926;2023-08-24T13:56:19;13.83;;;5.20;;
4521;SDS011;2273;48.464;11.926;2023-08-24T13:58:44;10.00;;;5.47;;
4521;SDS011;2273;48.464;11.926;2023-08-24T14:01:09;6.87;;;5.10;;
4521;SDS011;2273;48.464;11.926;2023-08-24T14:03:35;8.20;;;5.30;;
4521;SDS011;2273;48.464;11.926;2023-08-24T14:06:02;12.10;;;5.00;;
4521;SDS011;2273;48.464;11.926;2023-08-24T14:08:28;11.43;;;4.50;;
4521;SDS011;2273;48.464;11.926;2023-08-24T14:10:53;6.63;;;4.40;;
4521;SDS011;2273;48.464;11.926;2023-08-24T14:13:19;7.90;;;4.80;;
4521;SDS011;2273;48.464;11.926;2023-08-24T14:15:45;7.33;;;4.77;;
4521;SDS011;2273;48.464;11.926;2023-08-24T14:18:12;20.93;;;6.50;;
4521;SDS011;2273;48.464;11.926;2023-08-24T14:20:38;7.27;;;4.60;;
4521;SDS011;2273;48.464;11.926;2023-08-24T14:23:03;14.67;;;5.00;;
4521;SDS011;2273;48.464;11.926;2023-08-24T14:25:29;12.37;;;4.30;;
4521;SDS011;2273;48.464;11.926;2023-08-24T14:27:54;7.60;;;4.50;;
4521;SDS011;2273;48.464;11.926;2023-08-24T14:30:19;9.53;;;4.30;;
4521;SDS011;2273;48.464;11.926;2023-08-24T14:32:45;14.03;;;4.80;;
4521;SDS011;2273;48.464;11.926;2023-08-24T14:35:10;6.80;;;4.33;;
4521;SDS011;2273;48.464;11.926;2023-08-24T14:37:36;15.40;;;4.00;;
4521;SDS011;2273;48.464;11.926;2023-08-24T14:40:03;9.50;;;4.00;;
4521;SDS011;2273;48.464;11.926;2023-08-24T14:42:30;12.43;;;4.03;;
4521;SDS011;2273;48.464;11.926;2023-08-24T14:44:55;9.83;;;4.57;;
4521;SDS011;2273;48.464;11.926;2023-08-24T14:47:20;10.93;;;4.00;;
4521;SDS011;2273;48.464;11.926;2023-08-24T14:49:46;6.43;;;4.20;;
4521;SDS011;2273;48.464;11.926;2023-08-24T14:52:12;10.73;;;4.00;;
4521;SDS011;2273;48.464;11.926;2023-08-24T14:54:37;7.27;;;3.70;;